Time;durP1;ratioP1;P1;durP2;ratioP2;P2;SDS_P1;SDS_P2;PMS_P1;PMS_P2;Temp;Humidity;BMP_temperature;BMP_pressure;BME280_temperature;BME280_humidity;BME280_pressure;Samples;Min_cycle;Max_cycle;Signal;HPM_P1;HPM_P2
2022/03/29 00:00:59;;;;;;;26.25;16.60;;;6.50;99.90;;;;;;5047355;28;20037;-83
2022/03/29 00:03:25;;;;;;;27.80;17.15;;;6.50;99.90;;;;;;5043228;28;21729;-82
2022/03/29 00:05:54;;;;;;;32.35;18.08;;;6.50;99.90;;;;;;5045038;28;20040;-82
2022/03/29 00:08:20;;;;;;;32.28;16.17;;;6.50;99.90;;;;;;5045292;28;20792;-83
2022/03/29 00:10:46;;;;;;;27.58;16.73;;;6.50;99.90;;;;;;5026863;28;20044;-82
2022/03/29 00:13:12;;;;;;;29.27;16.80;;;6.60;99.90;;;;;;5046790;28;20194;-83
2022/03/29 00:15:37;;;;;;;29.77;16.13;;;6.60;99.90;;;;;;5064974;28;20496;-83
2022/03/29 00:18:03;;;;;;;31.05;18.17;;;6.60;99.90;;;;;;5048110;28;20036;-82
2022/03/29 00:20:29;;;;;;;31.60;17.23;;;6.60;99.90;;;;;;5064137;28;20036;-83
2022/03/29 00:22:55;;;;;;;27.13;16.20;;;6.60;99.90;;;;;;5042317;28;20055;-82
2022/03/29 00:25:20;;;;;;;33.00;17.80;;;6.60;99.90;;;;;;5043206;28;20040;-82
2022/03/29 00:27:48;;;;;;;33.05;18.05;;;6.70;99.90;;;;;;5048262;28;20194;-82
2022/03/29 00:30:16;;;;;;;45.47;18.60;;;6.60;99.90;;;;;;5028165;28;20127;-82
2022/03/29 00:32:45;;;;;;;33.42;17.95;;;6.60;99.90;;;;;;5043663;28;20772;-82
2022/03/29 00:35:11;;;;;;;32.58;18.05;;;6.60;99.90;;;;;;5044740;28;20163;-83
2022/03/29 00:37:41;;;;;;;31.15;18.23;;;6.60;99.90;;;;;;5043684;28;20136;-83
2022/03/29 00:40:10;;;;;;;32.88;19.08;;;6.60;99.90;;;;;;5065262;28;20425;-82
2022/03/29 00:42:36;;;;;;;34.42;18.73;;;6.60;99.90;;;;;;5044429;28;20186;-84
2022/03/29 00:45:03;;;;;;;31.33;17.98;;;6.60;99.90;;;;;;5017779;28;20052;-83
2022/03/29 00:47:29;;;;;;;33.58;18.65;;;6.50;99.90;;;;;;5044758;28;20056;-83
2022/03/29 00:49:55;;;;;;;34.45;17.65;;;6.60;99.90;;;;;;5026896;28;20045;-83
2022/03/29 00:52:24;;;;;;;35.03;18.02;;;6.60;99.90;;;;;;5011112;28;20044;-82
2022/03/29 00:54:49;;;;;;;33.55;18.27;;;6.60;99.90;;;;;;5027133;28;20120;-82
2022/03/29 00:57:15;;;;;;;30.23;17.65;;;6.60;99.90;;;;;;5032292;28;20151;-82
2022/03/29 00:59:43;;;;;;;29.75;17.70;;;6.60;99.90;;;;;;5006097;28;20813;-82
2022/03/29 01:02:09;;;;;;;32.22;17.60;;;7.50;99.90;;;;;;5012565;28;20070;-83
2022/03/29 01:04:35;;;;;;;32.80;18.10;;;6.60;99.90;;;;;;5045364;28;20391;-83
2022/03/29 01:07:01;;;;;;;31.13;16.98;;;6.60;99.90;;;;;;5015112;28;20097;-83
2022/03/29 01:09:28;;;;;;;28.63;15.70;;;6.80;99.90;;;;;;5009273;28;20044;-82
2022/03/29 01:11:54;;;;;;;28.13;15.50;;;6.60;99.90;;;;;;5025629;28;20037;-83
2022/03/29 01:14:24;;;;;;;27.67;15.85;;;6.60;99.90;;;;;;5026037;28;20055;-83
2022/03/29 01:19:36;;;;;;;29.35;15.98;;;6.50;99.90;;;;;;5029666;28;20118;-83
2022/03/29 01:22:05;;;;;;;30.88;15.43;;;6.50;99.90;;;;;;5028401;28;20382;-83
2022/03/29 01:24:32;;;;;;;30.90;15.68;;;6.50;99.90;;;;;;5030083;28;20041;-83
2022/03/29 01:27:00;;;;;;;29.23;14.90;;;7.10;99.90;;;;;;5029130;28;20142;-82
2022/03/29 01:29:28;;;;;;;28.17;15.85;;;6.50;99.90;;;;;;5030541;28;20032;-83
2022/03/29 01:31:54;;;;;;;28.88;15.18;;;7.00;99.90;;;;;;5024735;28;20531;-83
2022/03/29 01:34:20;;;;;;;30.85;15.65;;;6.50;99.90;;;;;;5045221;28;20044;-83
2022/03/29 01:36:47;;;;;;;29.13;15.93;;;6.50;99.90;;;;;;5031089;28;20243;-83
2022/03/29 01:39:13;;;;;;;28.17;15.90;;;6.50;99.90;;;;;;5026582;28;20128;-83
2022/03/29 01:41:39;;;;;;;29.30;14.93;;;6.50;99.90;;;;;;5048915;28;20132;-83
2022/03/29 01:44:09;;;;;;;27.45;14.60;;;6.50;99.90;;;;;;5028075;28;20053;-83
2022/03/29 01:46:35;;;;;;;28.85;15.05;;;6.50;99.90;;;;;;5062074;28;20135;-83
2022/03/29 01:49:01;;;;;;;30.27;14.63;;;6.50;99.90;;;;;;5042052;28;20049;-83
2022/03/29 01:51:27;;;;;;;29.77;15.10;;;6.50;99.90;;;;;;5037190;28;20047;-83
2022/03/29 01:53:54;;;;;;;31.13;15.77;;;6.50;99.90;;;;;;5063573;28;20040;-83
2022/03/29 01:56:20;;;;;;;27.92;15.55;;;6.50;99.90;;;;;;5028739;28;20066;-83
2022/03/29 01:58:46;;;;;;;28.67;16.05;;;6.50;99.90;;;;;;5039492;28;20032;-82
2022/03/29 02:01:12;;;;;;;27.40;15.77;;;7.40;99.90;;;;;;5038528;28;20048;-83
2022/03/29 02:03:38;;;;;;;31.67;15.93;;;6.50;99.90;;;;;;5032873;28;20047;-82
2022/03/29 02:06:04;;;;;;;28.17;15.65;;;6.50;99.90;;;;;;5029889;28;20037;-83
2022/03/29 02:08:30;;;;;;;29.98;15.23;;;6.50;99.90;;;;;;5028788;28;20044;-83
2022/03/29 02:10:56;;;;;;;30.38;16.88;;;6.50;99.90;;;;;;5045781;28;20076;-83
2022/03/29 02:13:22;;;;;;;37.67;17.85;;;6.50;99.90;;;;;;5063571;28;20045;-83
2022/03/29 02:15:48;;;;;;;31.48;17.55;;;6.50;99.90;;;;;;5045782;28;20055;-84
2022/03/29 02:18:15;;;;;;;36.17;19.63;;;6.50;99.90;;;;;;5028976;28;20497;-82
2022/03/29 02:20:41;;;;;;;36.35;18.52;;;6.50;99.90;;;;;;5064069;28;20052;-82
2022/03/29 02:23:09;;;;;;;36.08;18.70;;;6.40;99.90;;;;;;5029301;28;20071;-83
2022/03/29 02:25:36;;;;;;;33.42;19.17;;;6.40;99.90;;;;;;5027009;28;20053;-83
2022/03/29 02:28:02;;;;;;;35.40;19.17;;;6.40;99.90;;;;;;5062666;28;20636;-82
2022/03/29 02:30:29;;;;;;;32.60;18.80;;;6.40;99.90;;;;;;5042471;28;20036;-83
2022/03/29 02:32:55;;;;;;;36.58;18.70;;;6.40;99.90;;;;;;5031079;28;20044;-83
2022/03/29 02:35:21;;;;;;;36.10;20.02;;;6.40;99.90;;;;;;5045983;28;20043;-83
2022/03/29 02:37:47;;;;;;;34.63;19.15;;;6.40;99.90;;;;;;5025956;28;20029;-84
2022/03/29 02:40:13;;;;;;;38.35;20.27;;;6.40;99.90;;;;;;5043257;28;20339;-83
2022/03/29 02:42:54;;;;;;;36.25;19.35;;;6.40;99.90;;;;;;5045581;28;20028;-83
2022/03/29 02:45:24;;;;;;;36.63;20.15;;;6.30;99.90;;;;;;5062890;28;20049;-83
2022/03/29 02:47:53;;;;;;;39.33;21.67;;;6.50;99.90;;;;;;5043794;28;20048;-82
2022/03/29 02:50:20;;;;;;;33.97;18.05;;;6.30;99.90;;;;;;5070256;28;20047;-83
2022/03/29 02:52:47;;;;;;;35.28;19.50;;;6.30;99.90;;;;;;5064383;28;20131;-82
2022/03/29 02:55:18;;;;;;;40.10;19.77;;;6.30;99.90;;;;;;5050675;28;20059;-83
2022/03/29 02:57:44;;;;;;;37.72;19.75;;;6.30;99.90;;;;;;5075326;28;20079;-83
2022/03/29 03:00:15;;;;;;;36.63;21.23;;;6.30;99.90;;;;;;5044738;28;20044;-83
2022/03/29 03:02:41;;;;;;;35.60;19.75;;;6.30;99.90;;;;;;5046667;28;20044;-83
2022/03/29 03:05:08;;;;;;;35.38;18.95;;;6.30;99.90;;;;;;5069440;28;20050;-83
2022/03/29 03:07:34;;;;;;;41.60;20.42;;;6.30;99.90;;;;;;5048197;28;20047;-82
2022/03/29 03:10:00;;;;;;;36.30;19.95;;;6.30;99.90;;;;;;5043756;28;20040;-82
2022/03/29 03:12:26;;;;;;;31.55;18.73;;;6.30;99.90;;;;;;5050537;28;20064;-82
2022/03/29 03:14:52;;;;;;;35.10;19.67;;;6.30;99.90;;;;;;5043909;28;20063;-83
2022/03/29 03:17:17;;;;;;;36.47;19.30;;;6.30;99.90;;;;;;5045201;28;20495;-83
2022/03/29 03:19:44;;;;;;;37.03;19.23;;;6.30;99.90;;;;;;5054904;28;20041;-83
2022/03/29 03:22:10;;;;;;;34.65;18.73;;;6.30;99.90;;;;;;5029398;28;20094;-83
2022/03/29 03:24:36;;;;;;;34.15;19.60;;;6.30;99.90;;;;;;5030628;28;20044;-83
2022/03/29 03:27:03;;;;;;;33.58;19.00;;;6.60;99.90;;;;;;5036674;28;20396;-82
2022/03/29 03:29:29;;;;;;;36.45;19.13;;;6.30;99.90;;;;;;5028700;28;20274;-83
2022/03/29 03:31:55;;;;;;;37.75;19.13;;;6.30;99.90;;;;;;5069355;28;20443;-83
2022/03/29 03:34:20;;;;;;;34.50;18.73;;;6.30;99.90;;;;;;5037677;28;20054;-82
2022/03/29 03:36:46;;;;;;;37.88;18.90;;;6.30;99.90;;;;;;5049057;28;20086;-83
2022/03/29 03:39:12;;;;;;;35.53;18.25;;;6.30;99.90;;;;;;5050506;28;20045;-83
2022/03/29 03:41:39;;;;;;;35.05;18.80;;;7.10;99.90;;;;;;5032093;28;20052;-83
2022/03/29 03:44:05;;;;;;;34.15;18.60;;;6.30;99.90;;;;;;5066303;28;20097;-84
2022/03/29 03:46:31;;;;;;;38.15;19.73;;;6.30;99.90;;;;;;5028469;28;20051;-82
2022/03/29 03:48:57;;;;;;;36.90;19.30;;;6.30;99.90;;;;;;5067238;28;20036;-83
2022/03/29 03:51:23;;;;;;;36.15;19.35;;;6.30;99.90;;;;;;5044691;28;20044;-82
2022/03/29 03:53:50;;;;;;;39.17;19.55;;;6.30;99.90;;;;;;5032402;28;20047;-83
2022/03/29 03:56:15;;;;;;;35.42;18.70;;;6.30;99.90;;;;;;5047658;28;20101;-83
2022/03/29 03:58:41;;;;;;;35.15;19.13;;;6.30;99.90;;;;;;5074051;28;20493;-83
2022/03/29 04:01:11;;;;;;;40.50;19.35;;;6.30;99.90;;;;;;5031677;28;20052;-83
2022/03/29 04:03:38;;;;;;;36.33;19.35;;;6.40;99.90;;;;;;5044194;28;20404;-83
2022/03/29 04:06:04;;;;;;;32.60;18.77;;;6.30;99.90;;;;;;5042531;28;20054;-83
2022/03/29 04:08:29;;;;;;;35.00;19.02;;;6.40;99.90;;;;;;5027890;28;20793;-83
2022/03/29 04:10:56;;;;;;;37.10;19.02;;;6.30;99.90;;;;;;5024146;28;20269;-83
2022/03/29 04:13:22;;;;;;;33.22;19.48;;;6.40;99.90;;;;;;5040636;28;20054;-83
2022/03/29 04:15:48;;;;;;;33.15;18.90;;;6.60;99.90;;;;;;5059017;28;20505;-83
2022/03/29 04:18:15;;;;;;;34.60;18.95;;;6.40;99.90;;;;;;5038302;28;20032;-83
2022/03/29 04:20:41;;;;;;;34.10;19.73;;;7.00;99.90;;;;;;5040747;28;20127;-83
2022/03/29 04:23:10;;;;;;;33.55;18.60;;;6.40;99.90;;;;;;5056721;28;20119;-81
2022/03/29 04:25:36;;;;;;;33.92;19.40;;;6.30;99.90;;;;;;5055191;28;20041;-82
2022/03/29 04:28:01;;;;;;;36.78;19.20;;;6.40;99.90;;;;;;5019653;28;20033;-82
2022/03/29 04:30:27;;;;;;;37.58;18.92;;;6.40;99.90;;;;;;5022652;28;20786;-83
2022/03/29 04:32:54;;;;;;;37.63;19.92;;;6.40;99.90;;;;;;5038324;28;20040;-83
2022/03/29 04:35:20;;;;;;;36.05;18.90;;;6.30;99.90;;;;;;5054948;28;20170;-84
2022/03/29 04:37:45;;;;;;;35.30;19.23;;;6.30;99.90;;;;;;5039348;28;20412;-83
2022/03/29 04:40:12;;;;;;;32.47;18.77;;;6.40;99.90;;;;;;5028617;28;20522;-83
2022/03/29 04:42:44;;;;;;;39.15;18.42;;;6.30;99.90;;;;;;5029182;28;20100;-83
2022/03/29 04:45:11;;;;;;;38.47;19.17;;;6.40;99.90;;;;;;5027480;28;20067;-83
2022/03/29 04:47:38;;;;;;;36.17;19.38;;;6.30;99.90;;;;;;5044951;28;20045;-83
2022/03/29 04:50:04;;;;;;;38.75;20.00;;;6.40;99.90;;;;;;5028859;28;20139;-83
2022/03/29 04:52:30;;;;;;;42.75;19.40;;;6.40;99.90;;;;;;5024834;28;20044;-83
2022/03/29 04:54:55;;;;;;;36.97;19.33;;;6.40;99.90;;;;;;5037810;28;20093;-83
2022/03/29 04:57:21;;;;;;;39.80;19.92;;;6.40;99.90;;;;;;5020625;28;20086;-83
2022/03/29 04:59:47;;;;;;;34.95;19.10;;;6.40;99.90;;;;;;5041630;28;20116;-83
2022/03/29 05:02:13;;;;;;;32.60;18.13;;;6.30;99.90;;;;;;5041685;28;20766;-83
2022/03/29 05:04:38;;;;;;;37.95;19.73;;;6.30;99.90;;;;;;5035931;28;20553;-83
2022/03/29 05:07:04;;;;;;;35.40;19.45;;;6.30;99.90;;;;;;5036107;28;20135;-83
2022/03/29 05:09:30;;;;;;;42.35;19.17;;;6.30;99.90;;;;;;5020992;28;20570;-83
2022/03/29 05:11:57;;;;;;;37.33;19.75;;;6.40;99.90;;;;;;5055561;28;20067;-83
2022/03/29 05:14:22;;;;;;;36.60;20.05;;;6.30;99.90;;;;;;5054868;28;20083;-83
2022/03/29 05:16:48;;;;;;;36.50;20.80;;;6.30;99.90;;;;;;5032238;28;20058;-83
2022/03/29 05:19:14;;;;;;;38.53;19.42;;;6.30;99.90;;;;;;5054355;28;20063;-83
2022/03/29 05:21:39;;;;;;;38.92;19.95;;;6.60;99.90;;;;;;5053640;28;20113;-83
2022/03/29 05:24:05;;;;;;;38.67;20.50;;;6.20;99.90;;;;;;5023167;28;20419;-84
2022/03/29 05:26:31;;;;;;;38.00;20.58;;;6.30;99.90;;;;;;5029059;28;20247;-83
2022/03/29 05:28:57;;;;;;;38.75;21.80;;;6.30;99.90;;;;;;5014636;28;20036;-83
2022/03/29 05:31:23;;;;;;;40.92;20.05;;;6.30;99.90;;;;;;5024090;28;20126;-83
2022/03/29 05:33:48;;;;;;;37.53;20.27;;;6.30;99.90;;;;;;5081553;28;20048;-83
2022/03/29 05:36:15;;;;;;;35.97;20.17;;;6.30;99.90;;;;;;5057393;28;20056;-84
2022/03/29 05:38:47;;;;;;;39.13;20.63;;;6.30;99.90;;;;;;5070808;28;20091;-84
2022/03/29 05:41:15;;;;;;;41.88;20.92;;;6.30;99.90;;;;;;5062984;28;20044;-83
2022/03/29 05:43:41;;;;;;;42.67;21.75;;;6.30;99.90;;;;;;5019952;28;20098;-83
2022/03/29 05:48:52;;;;;;;39.30;21.65;;;6.30;99.90;;;;;;5065831;28;20495;-84
2022/03/29 05:51:24;;;;;;;40.00;21.65;;;6.30;99.90;;;;;;5022860;28;20036;-84
2022/03/29 05:53:52;;;;;;;37.90;21.33;;;6.30;99.90;;;;;;5052677;28;20392;-83
2022/03/29 05:56:18;;;;;;;41.05;21.13;;;6.40;99.90;;;;;;5029596;28;20047;-84
2022/03/29 05:58:44;;;;;;;41.45;20.95;;;6.40;99.90;;;;;;5051996;28;20168;-83
2022/03/29 06:01:10;;;;;;;42.90;21.23;;;6.50;99.90;;;;;;5034229;28;20063;-83
2022/03/29 06:03:35;;;;;;;39.83;20.50;;;6.60;99.90;;;;;;5017867;28;21585;-83
2022/03/29 06:06:01;;;;;;;38.58;21.20;;;6.40;99.90;;;;;;5041772;28;20123;-83
2022/03/29 06:08:27;;;;;;;38.35;20.83;;;6.40;99.90;;;;;;5043328;28;20055;-83
2022/03/29 06:10:53;;;;;;;41.45;20.90;;;6.40;99.90;;;;;;5039811;28;20032;-83
2022/03/29 06:13:19;;;;;;;39.42;20.65;;;6.40;99.90;;;;;;5043862;28;20562;-83
2022/03/29 06:15:45;;;;;;;39.38;21.33;;;6.40;99.90;;;;;;5025377;28;20409;-83
2022/03/29 06:18:11;;;;;;;37.20;19.75;;;6.50;99.90;;;;;;5024141;28;20053;-83
2022/03/29 06:20:36;;;;;;;37.13;21.23;;;6.50;99.90;;;;;;5057082;28;20778;-83
2022/03/29 06:23:02;;;;;;;44.67;22.05;;;6.50;99.90;;;;;;5056630;28;20556;-83
2022/03/29 06:25:28;;;;;;;39.03;20.88;;;6.50;99.90;;;;;;5054538;28;20071;-83
2022/03/29 06:27:54;;;;;;;39.15;22.08;;;6.50;99.90;;;;;;5017223;28;20036;-83
2022/03/29 06:30:20;;;;;;;41.33;21.35;;;7.10;99.90;;;;;;5033368;28;20064;-83
2022/03/29 06:32:53;;;;;;;34.90;20.88;;;6.60;99.90;;;;;;5028203;28;20056;-83
2022/03/29 06:35:24;;;;;;;43.05;21.55;;;6.60;99.90;;;;;;5043567;28;20136;-83
2022/03/29 06:37:58;;;;;;;40.58;21.80;;;6.60;99.90;;;;;;5040290;28;20055;-83
2022/03/29 06:40:25;;;;;;;42.20;21.23;;;6.60;99.90;;;;;;5045271;28;20475;-83
2022/03/29 06:42:52;;;;;;;39.08;21.45;;;6.60;99.90;;;;;;5054291;28;20050;-83
2022/03/29 06:45:18;;;;;;;37.65;21.17;;;6.70;99.90;;;;;;5037329;28;20061;-83
2022/03/29 06:47:44;;;;;;;43.15;21.52;;;6.70;99.90;;;;;;5017032;28;20051;-83
2022/03/29 06:50:11;;;;;;;38.13;20.40;;;6.70;99.90;;;;;;5030549;28;20048;-83
2022/03/29 06:52:42;;;;;;;43.70;21.58;;;6.70;99.90;;;;;;5031750;28;20052;-83
2022/03/29 06:55:10;;;;;;;41.70;22.25;;;6.70;99.90;;;;;;5034963;28;20051;-83
2022/03/29 06:57:37;;;;;;;41.78;21.30;;;6.70;99.90;;;;;;5000301;28;20048;-84
2022/03/29 07:00:05;;;;;;;46.33;22.30;;;6.70;99.90;;;;;;5015471;28;20052;-83
2022/03/29 07:02:30;;;;;;;40.13;21.42;;;6.70;99.90;;;;;;5039254;28;20493;-83
2022/03/29 07:04:56;;;;;;;41.25;21.73;;;6.70;99.90;;;;;;5042118;28;20049;-83
2022/03/29 07:07:22;;;;;;;43.95;22.58;;;6.90;99.90;;;;;;5063866;28;20178;-83
2022/03/29 07:12:34;;;;;;;43.20;22.33;;;7.00;99.90;;;;;;5043121;28;20056;-83
2022/03/29 07:15:00;;;;;;;47.60;21.83;;;6.80;99.90;;;;;;5061613;28;20032;-83
2022/03/29 07:17:26;;;;;;;42.05;22.10;;;6.80;99.90;;;;;;5043686;28;20044;-83
2022/03/29 07:19:53;;;;;;;42.10;22.15;;;6.80;99.90;;;;;;5039460;28;20126;-83
2022/03/29 07:22:19;;;;;;;44.63;21.45;;;6.80;99.90;;;;;;5040805;28;20056;-83
2022/03/29 07:24:45;;;;;;;44.30;21.85;;;6.80;99.90;;;;;;5034023;28;20040;-84
2022/03/29 07:27:11;;;;;;;43.92;21.27;;;6.80;99.90;;;;;;5042844;28;20138;-83
2022/03/29 07:29:39;;;;;;;42.28;21.73;;;6.90;99.90;;;;;;5051071;28;20059;-83
2022/03/29 07:32:05;;;;;;;37.63;21.70;;;6.90;99.90;;;;;;5039476;28;20088;-83
2022/03/29 07:34:35;;;;;;;52.47;22.90;;;6.90;99.90;;;;;;5047497;28;20036;-83
2022/03/29 07:37:02;;;;;;;42.83;21.67;;;6.90;99.90;;;;;;5035115;28;20058;-83
2022/03/29 07:39:28;;;;;;;42.53;21.30;;;7.00;99.90;;;;;;5021228;28;20820;-82
2022/03/29 07:41:55;;;;;;;45.53;21.73;;;7.10;99.90;;;;;;5057022;28;20066;-83
2022/03/29 07:44:21;;;;;;;44.85;21.88;;;7.10;99.90;;;;;;5017211;28;20503;-83
2022/03/29 07:46:47;;;;;;;42.45;22.20;;;7.10;99.90;;;;;;5004469;28;20041;-83
2022/03/29 07:49:13;;;;;;;44.28;21.88;;;7.20;99.90;;;;;;5007213;28;20472;-82
2022/03/29 07:51:39;;;;;;;38.22;22.33;;;7.20;99.90;;;;;;5006848;28;20142;-83
2022/03/29 07:54:05;;;;;;;44.47;20.85;;;7.30;99.90;;;;;;5021331;28;20044;-83
2022/03/29 07:56:31;;;;;;;45.67;22.88;;;7.30;99.90;;;;;;5034259;28;20152;-83
2022/03/29 07:58:57;;;;;;;46.80;22.50;;;7.40;99.90;;;;;;5034293;28;20051;-82
2022/03/29 08:01:23;;;;;;;44.10;21.55;;;7.50;99.90;;;;;;5012069;28;21405;-83
2022/03/29 08:03:49;;;;;;;43.90;21.38;;;7.50;99.90;;;;;;5029713;28;20048;-83
2022/03/29 08:06:14;;;;;;;40.78;22.10;;;7.60;99.90;;;;;;5025787;28;20048;-83
2022/03/29 08:08:41;;;;;;;43.55;21.67;;;8.30;99.90;;;;;;5043013;28;20032;-83
2022/03/29 08:11:08;;;;;;;37.95;20.60;;;7.70;99.90;;;;;;5026701;28;20471;-83
2022/03/29 08:13:37;;;;;;;44.92;21.00;;;8.50;99.90;;;;;;5027548;28;21891;-83
2022/03/29 08:16:03;;;;;;;42.25;20.58;;;8.00;99.90;;;;;;5047965;28;20578;-83
2022/03/29 08:18:30;;;;;;;38.92;19.77;;;7.90;99.90;;;;;;5029860;28;20051;-83
2022/03/29 08:20:56;;;;;;;38.00;20.80;;;8.00;99.90;;;;;;5047367;28;20285;-83
2022/03/29 08:23:26;;;;;;;39.30;20.45;;;8.00;99.90;;;;;;5030400;28;20106;-83
2022/03/29 08:25:52;;;;;;;45.60;20.67;;;8.10;99.90;;;;;;5055838;28;20067;-83
2022/03/29 08:28:19;;;;;;;48.65;21.98;;;8.20;99.90;;;;;;5054105;28;20546;-83
2022/03/29 08:30:45;;;;;;;36.70;19.60;;;8.50;99.90;;;;;;5029170;28;20044;-83
2022/03/29 08:33:11;;;;;;;34.45;19.27;;;8.60;99.90;;;;;;5016283;28;20056;-83
2022/03/29 08:35:38;;;;;;;40.90;20.42;;;8.20;99.90;;;;;;5013323;28;20498;-83
2022/03/29 08:38:04;;;;;;;41.50;20.55;;;8.80;99.90;;;;;;5016346;28;20110;-83
2022/03/29 08:40:30;;;;;;;41.80;20.13;;;8.20;99.90;;;;;;5039012;28;20047;-83
2022/03/29 08:42:58;;;;;;;45.55;20.40;;;8.20;99.90;;;;;;5020418;28;20077;-84
2022/03/29 08:45:35;;;;;;;38.42;20.48;;;8.30;99.90;;;;;;5039384;28;20143;-83
2022/03/29 08:48:01;;;;;;;35.20;20.98;;;8.30;99.90;;;;;;5021618;28;20064;-83
2022/03/29 08:50:31;;;;;;;34.22;19.45;;;8.30;99.90;;;;;;5022365;28;20045;-83
2022/03/29 08:52:57;;;;;;;41.20;20.08;;;8.40;99.90;;;;;;5031711;28;20037;-83
2022/03/29 08:55:23;;;;;;;46.03;20.75;;;8.40;99.90;;;;;;5019783;28;20573;-83
2022/03/29 08:57:54;;;;;;;44.53;20.38;;;8.50;99.90;;;;;;5040250;28;20061;-83
2022/03/29 09:00:20;;;;;;;42.13;20.38;;;8.70;99.90;;;;;;5030336;28;20142;-83
2022/03/29 09:02:46;;;;;;;46.03;20.05;;;8.80;99.90;;;;;;5056469;28;20040;-84
2022/03/29 09:05:16;;;;;;;41.17;18.95;;;8.80;99.90;;;;;;5049581;28;20127;-83
2022/03/29 09:07:53;;;;;;;41.57;18.17;;;9.30;99.90;;;;;;5021802;28;20518;-83
2022/03/29 09:10:22;;;;;;;38.63;17.08;;;8.80;99.90;;;;;;5030168;28;20048;-83
2022/03/29 09:12:48;;;;;;;36.80;15.30;;;8.80;99.90;;;;;;5016605;28;20048;-83
2022/03/29 09:15:14;;;;;;;33.60;12.85;;;8.70;99.90;;;;;;5020305;28;20037;-83
2022/03/29 09:17:42;;;;;;;34.95;13.02;;;8.70;99.90;;;;;;5040785;28;20045;-83
2022/03/29 09:20:28;;;;;;;32.22;12.43;;;8.70;99.90;;;;;;5035577;28;20044;-82
2022/03/29 09:22:55;;;;;;;32.88;11.90;;;8.80;99.90;;;;;;5022410;28;20549;-83
2022/03/29 09:25:37;;;;;;;33.03;11.50;;;8.80;99.90;;;;;;5042582;28;20041;-83
2022/03/29 09:28:12;;;;;;;32.17;12.05;;;8.90;99.90;;;;;;5030000;28;20044;-83
2022/03/29 09:30:41;;;;;;;38.50;13.95;;;9.00;99.90;;;;;;5014755;28;20502;-82
2022/03/29 09:33:16;;;;;;;34.53;11.85;;;9.10;99.90;;;;;;5037253;28;20086;-84
2022/03/29 09:36:03;;;;;;;34.42;12.00;;;9.30;99.90;;;;;;5012664;28;20090;-83
2022/03/29 09:38:39;;;;;;;32.88;11.85;;;9.30;99.90;;;;;;5037554;28;20136;-82
2022/03/29 09:41:18;;;;;;;31.23;11.68;;;9.40;99.90;;;;;;5017748;28;20084;-83
2022/03/29 09:43:44;;;;;;;28.95;11.45;;;9.40;99.90;;;;;;5041036;28;20048;-83
2022/03/29 09:46:09;;;;;;;33.67;11.73;;;9.60;99.90;;;;;;5040544;28;20627;-83
2022/03/29 09:48:42;;;;;;;28.50;10.82;;;9.50;99.90;;;;;;5042348;28;20465;-84
2022/03/29 09:51:07;;;;;;;30.33;10.98;;;9.50;99.90;;;;;;5056611;28;20501;-83
2022/03/29 09:53:48;;;;;;;31.60;10.50;;;9.50;99.90;;;;;;5056187;28;20116;-83
2022/03/29 09:56:24;;;;;;;28.85;10.45;;;9.50;99.90;;;;;;5075781;28;20051;-83
2022/03/29 09:59:04;;;;;;;29.20;10.93;;;9.50;99.90;;;;;;5024843;28;20144;-83
2022/03/29 10:01:31;;;;;;;29.00;10.60;;;9.60;99.90;;;;;;5054079;28;20052;-84
2022/03/29 10:04:00;;;;;;;25.80;10.02;;;9.70;99.90;;;;;;5036491;28;20072;-83
2022/03/29 10:06:26;;;;;;;27.98;10.98;;;9.70;99.90;;;;;;5052964;28;20052;-82
2022/03/29 10:11:46;;;;;;;;;;;9.80;99.90;;;;;;5081659;28;20048;-83
2022/03/29 10:14:12;;;;;;;29.60;10.13;;;9.90;99.90;;;;;;5051576;28;20043;-83
2022/03/29 10:16:38;;;;;;;24.70;9.60;;;9.90;99.90;;;;;;5044694;28;20036;-84
2022/03/29 10:19:06;;;;;;;24.35;8.90;;;9.80;99.90;;;;;;5082757;28;20110;-83
2022/03/29 10:21:32;;;;;;;31.60;9.68;;;9.60;99.90;;;;;;5057289;28;20083;-82
2022/03/29 10:23:59;;;;;;;37.17;10.15;;;9.70;99.90;;;;;;5071909;28;20048;-83
2022/03/29 10:26:27;;;;;;;30.85;9.80;;;9.60;99.90;;;;;;5038859;28;20036;-83
2022/03/29 10:28:53;;;;;;;33.78;10.18;;;9.40;99.90;;;;;;5085399;28;21091;-83
2022/03/29 10:31:39;;;;;;;24.00;10.05;;;9.40;99.90;;;;;;5075755;28;20064;-82
2022/03/29 10:34:19;;;;;;;29.23;9.48;;;9.50;99.90;;;;;;5074053;28;20127;-82
2022/03/29 10:37:09;;;;;;;26.45;9.40;;;9.70;99.90;;;;;;5076446;28;20103;-82
2022/03/29 10:39:53;;;;;;;29.23;9.02;;;9.80;99.90;;;;;;5052680;28;20052;-82
2022/03/29 10:42:38;;;;;;;27.83;9.90;;;9.90;99.90;;;;;;5052670;28;20500;-84
2022/03/29 10:45:20;;;;;;;25.38;8.43;;;10.00;99.90;;;;;;5039765;28;20532;-83
2022/03/29 10:48:04;;;;;;;;;;;9.90;99.90;;;;;;5037356;28;20634;-83
2022/03/29 10:50:54;;;;;;;31.13;9.32;;;9.80;99.90;;;;;;5046529;28;20337;-83
2022/03/29 10:53:46;;;;;;;27.83;8.55;;;9.70;99.90;;;;;;5023464;28;20642;-82
2022/03/29 10:56:16;;;;;;;;;;;9.80;99.90;;;;;;5036569;28;20076;-83
2022/03/29 10:59:04;;;;;;;25.90;8.07;;;9.90;99.90;;;;;;5050418;28;20062;-83
2022/03/29 11:01:39;;;;;;;23.88;8.52;;;9.90;99.90;;;;;;5016007;28;20428;-82
2022/03/29 11:04:17;;;;;;;30.90;8.25;;;10.00;99.90;;;;;;5028226;28;20858;-83
2022/03/29 11:07:04;;;;;;;29.67;8.77;;;10.10;99.90;;;;;;5012113;28;20053;-82
2022/03/29 11:09:31;;;;;;;28.98;8.15;;;10.10;99.90;;;;;;5034134;28;20041;-82
2022/03/29 11:11:57;;;;;;;24.75;8.55;;;10.10;99.90;;;;;;5037850;28;20158;-83
2022/03/29 11:14:36;;;;;;;25.40;8.13;;;10.20;99.90;;;;;;5033784;28;20032;-82
2022/03/29 11:17:11;;;;;;;26.85;8.88;;;10.30;99.90;;;;;;5010544;28;20045;-82
2022/03/29 11:19:46;;;;;;;25.23;7.95;;;10.30;99.90;;;;;;5036583;28;20072;-82
2022/03/29 11:22:25;;;;;;;31.85;8.35;;;10.30;99.90;;;;;;5011130;28;20068;-81
2022/03/29 11:24:56;;;;;;;21.70;7.97;;;10.20;99.90;;;;;;5034554;28;20037;-81
2022/03/29 11:27:23;;;;;;;23.25;8.43;;;10.10;99.90;;;;;;5041881;28;20089;-81
2022/03/29 11:29:50;;;;;;;22.88;7.68;;;10.10;99.90;;;;;;5038414;28;20129;-82
2022/03/29 11:32:17;;;;;;;30.33;9.73;;;10.10;99.90;;;;;;5055883;28;20536;-82
2022/03/29 11:34:44;;;;;;;25.48;8.68;;;10.00;99.90;;;;;;5018952;28;20137;-82
2022/03/29 11:37:45;;;;;;;27.08;8.30;;;10.60;99.90;;;;;;5021264;28;20063;-81
2022/03/29 11:40:14;;;;;;;21.08;8.05;;;10.20;99.90;;;;;;4956924;28;20206;-82
2022/03/29 11:42:49;;;;;;;26.05;8.23;;;10.20;99.90;;;;;;5024833;28;20053;-82
2022/03/29 11:45:16;;;;;;;22.17;7.85;;;10.20;99.90;;;;;;5034423;28;20562;-83
2022/03/29 11:47:53;;;;;;;24.60;8.15;;;10.20;99.90;;;;;;5039997;28;20070;-82
2022/03/29 11:50:49;;;;;;;21.58;7.65;;;10.10;99.90;;;;;;5045922;28;20085;-82
2022/03/29 11:53:26;;;;;;;22.33;8.13;;;9.90;99.90;;;;;;5059878;28;20040;-81
2022/03/29 11:56:04;;;;;;;29.13;9.45;;;9.80;99.90;;;;;;5064248;28;20070;-81
2022/03/29 11:58:32;;;;;;;27.67;8.45;;;9.70;99.90;;;;;;5062686;28;20412;-82
2022/03/29 12:01:04;;;;;;;30.02;8.65;;;9.60;99.90;;;;;;5082744;28;20543;-82
2022/03/29 12:03:34;;;;;;;21.92;7.57;;;9.50;99.90;;;;;;5054935;28;20131;-82
2022/03/29 12:06:12;;;;;;;27.85;8.85;;;9.50;99.90;;;;;;5041513;28;20044;-81
2022/03/29 12:08:51;;;;;;;26.08;8.82;;;9.40;99.90;;;;;;5063466;28;20572;-82
2022/03/29 12:11:21;;;;;;;28.38;8.23;;;9.80;99.90;;;;;;5029515;28;20591;-82
2022/03/29 12:13:58;;;;;;;25.60;7.95;;;9.60;99.90;;;;;;5076127;28;20032;-81
2022/03/29 12:16:28;;;;;;;28.70;8.45;;;9.60;99.90;;;;;;5079395;28;20044;-82
2022/03/29 12:18:54;;;;;;;27.73;8.98;;;9.20;99.90;;;;;;5075162;28;20040;-83
2022/03/29 12:21:22;;;;;;;25.55;7.70;;;10.50;99.90;;;;;;5061486;28;20052;-81
2022/03/29 12:23:49;;;;;;;26.98;8.40;;;10.00;99.90;;;;;;5059536;28;20536;-82
2022/03/29 12:26:18;;;;;;;26.83;8.40;;;9.80;99.90;;;;;;5078053;28;20036;-83
2022/03/29 12:28:46;;;;;;;30.10;8.85;;;9.90;99.90;;;;;;5081896;28;20066;-82
2022/03/29 12:31:14;;;;;;;24.13;8.15;;;9.90;99.90;;;;;;5046070;28;20129;-82
2022/03/29 12:33:40;;;;;;;27.40;8.77;;;10.00;99.90;;;;;;5084034;28;20052;-81
2022/03/29 12:36:14;;;;;;;23.98;7.70;;;10.00;99.90;;;;;;5047210;28;20040;-81
2022/03/29 12:38:44;;;;;;;26.17;9.25;;;10.00;99.90;;;;;;5053806;28;20048;-81
2022/03/29 12:41:12;;;;;;;21.58;7.95;;;10.10;99.90;;;;;;5065244;28;20104;-81
2022/03/29 12:43:39;;;;;;;22.00;7.15;;;10.30;99.90;;;;;;5049355;28;20044;-82
2022/03/29 12:46:09;;;;;;;23.40;8.27;;;10.30;99.90;;;;;;5083826;28;20627;-82
2022/03/29 12:48:39;;;;;;;23.20;7.53;;;10.30;99.90;;;;;;5048743;28;20071;-82
2022/03/29 12:51:07;;;;;;;28.83;7.75;;;10.20;99.90;;;;;;5067786;28;20405;-80
2022/03/29 12:53:34;;;;;;;33.70;8.38;;;10.20;99.90;;;;;;5066737;28;20044;-81
2022/03/29 12:56:04;;;;;;;28.33;8.02;;;10.30;99.90;;;;;;5075953;28;20060;-81